sensor_id;sensor_type;location;lat;lon;timestamp;pressure;altitude;pressure_sealevel;temperature;humidity
55191;BME280;41070;50.360;18.742;2023-01-27T00:00:16;98794.48;;;-0.64;79.68
55191;BME280;41070;50.360;18.742;2023-01-27T00:03:03;98791.52;;;-0.68;79.62
55191;BME280;41070;50.360;18.742;2023-01-27T00:05:45;98792.06;;;-0.73;79.43
55191;BME280;41070;50.360;18.742;2023-01-27T00:08:12;98791.48;;;-0.77;79.91
55191;BME280;41070;50.360;18.742;2023-01-27T00:10:39;98792.21;;;-0.82;80.04
55191;BME280;41070;50.360;18.742;2023-01-27T00:16:17;98793.10;;;-0.86;80.38
55191;BME280;41070;50.360;18.742;2023-01-27T00:19:01;98792.68;;;-0.85;80.60
55191;BME280;41070;50.360;18.742;2023-01-27T00:21:45;98791.68;;;-0.85;80.77
55191;BME280;41070;50.360;18.742;2023-01-27T00:24:34;98793.42;;;-0.84;80.81
55191;BME280;41070;50.360;18.742;2023-01-27T00:27:21;98793.89;;;-0.84;81.08
55191;BME280;41070;50.360;18.742;2023-01-27T00:30:33;98799.56;;;-0.82;81.14
55191;BME280;41070;50.360;18.742;2023-01-27T00:33:29;98799.31;;;-0.81;81.08
55191;BME280;41070;50.360;18.742;2023-01-27T00:37:33;98799.41;;;-0.83;81.72
55191;BME280;41070;50.360;18.742;2023-01-27T00:40:44;98798.25;;;-0.89;81.33
55191;BME280;41070;50.360;18.742;2023-01-27T00:44:15;98798.04;;;-0.89;81.82
55191;BME280;41070;50.360;18.742;2023-01-27T00:47:52;98796.98;;;-0.88;81.74
55191;BME280;41070;50.360;18.742;2023-01-27T01:05:27;98794.27;;;-0.83;82.10
55191;BME280;41070;50.360;18.742;2023-01-27T01:08:23;98793.05;;;-0.81;82.21
55191;BME280;41070;50.360;18.742;2023-01-27T01:11:47;98799.31;;;-0.80;82.15
55191;BME280;41070;50.360;18.742;2023-01-27T01:15:15;98800.98;;;-0.75;82.13
55191;BME280;41070;50.360;18.742;2023-01-27T01:21:24;98806.45;;;-0.75;82.13
55191;BME280;41070;50.360;18.742;2023-01-27T01:24:15;98798.15;;;-0.76;82.15
55191;BME280;41070;50.360;18.742;2023-01-27T01:27:20;98795.46;;;-0.77;82.05
55191;BME280;41070;50.360;18.742;2023-01-27T01:30:18;98795.21;;;-0.78;82.01
55191;BME280;41070;50.360;18.742;2023-01-27T01:32:47;98796.69;;;-0.83;82.01
55191;BME280;41070;50.360;18.742;2023-01-27T01:35:14;98797.11;;;-0.83;82.31
55191;BME280;41070;50.360;18.742;2023-01-27T01:40:58;98795.30;;;-0.83;82.75
55191;BME280;41070;50.360;18.742;2023-01-27T01:43:28;98797.14;;;-0.85;82.66
55191;BME280;41070;50.360;18.742;2023-01-27T01:45:55;98793.83;;;-0.89;82.72
55191;BME280;41070;50.360;18.742;2023-01-27T01:48:48;98795.66;;;-0.88;82.80
55191;BME280;41070;50.360;18.742;2023-01-27T01:51:47;98797.77;;;-0.90;82.89
55191;BME280;41070;50.360;18.742;2023-01-27T01:58:12;98799.71;;;-0.95;83.60
55191;BME280;41070;50.360;18.742;2023-01-27T02:00:40;98798.98;;;-0.99;83.42
55191;BME280;41070;50.360;18.742;2023-01-27T02:03:50;98797.94;;;-1.01;83.79
55191;BME280;41070;50.360;18.742;2023-01-27T02:06:19;98793.13;;;-1.07;84.02
55191;BME280;41070;50.360;18.742;2023-01-27T02:09:02;98789.92;;;-1.11;84.64
55191;BME280;41070;50.360;18.742;2023-01-27T02:11:28;98789.75;;;-1.13;84.63
55191;BME280;41070;50.360;18.742;2023-01-27T02:13:55;98785.98;;;-1.16;84.67
55191;BME280;41070;50.360;18.742;2023-01-27T02:16:21;98787.17;;;-1.15;84.85
55191;BME280;41070;50.360;18.742;2023-01-27T02:18:48;98785.18;;;-1.16;84.89
55191;BME280;41070;50.360;18.742;2023-01-27T02:21:18;98779.67;;;-1.16;85.11
55191;BME280;41070;50.360;18.742;2023-01-27T02:24:01;98780.61;;;-1.17;85.32
55191;BME280;41070;50.360;18.742;2023-01-27T02:26:39;98778.40;;;-1.20;85.72
55191;BME280;41070;50.360;18.742;2023-01-27T02:29:11;98779.56;;;-1.21;85.76
55191;BME280;41070;50.360;18.742;2023-01-27T02:31:38;98784.02;;;-1.20;85.45
55191;BME280;41070;50.360;18.742;2023-01-27T02:34:30;98779.44;;;-1.22;85.81
55191;BME280;41070;50.360;18.742;2023-01-27T02:37:08;98776.19;;;-1.22;85.68
55191;BME280;41070;50.360;18.742;2023-01-27T02:39:41;98776.86;;;-1.23;86.02
55191;BME280;41070;50.360;18.742;2023-01-27T02:42:14;98776.65;;;-1.24;86.12
55191;BME280;41070;50.360;18.742;2023-01-27T02:45:13;98772.73;;;-1.22;86.10
55191;BME280;41070;50.360;18.742;2023-01-27T02:47:48;98776.30;;;-1.17;85.99
55191;BME280;41070;50.360;18.742;2023-01-27T02:50:17;98782.39;;;-1.17;85.86
55191;BME280;41070;50.360;18.742;2023-01-27T02:52:45;98777.14;;;-1.17;85.65
55191;BME280;41070;50.360;18.742;2023-01-27T02:55:15;98777.98;;;-1.16;85.52
55191;BME280;41070;50.360;18.742;2023-01-27T02:57:42;98777.14;;;-1.16;85.49
55191;BME280;41070;50.360;18.742;2023-01-27T03:00:10;98773.16;;;-1.15;85.60
55191;BME280;41070;50.360;18.742;2023-01-27T03:02:58;98777.30;;;-1.17;85.42
55191;BME280;41070;50.360;18.742;2023-01-27T03:05:25;98779.35;;;-1.16;85.37
55191;BME280;41070;50.360;18.742;2023-01-27T03:11:34;98783.50;;;-1.16;85.61
55191;BME280;41070;50.360;18.742;2023-01-27T03:14:19;98786.40;;;-1.12;85.19
55191;BME280;41070;50.360;18.742;2023-01-27T03:16:45;98794.02;;;-1.09;85.20
55191;BME280;41070;50.360;18.742;2023-01-27T03:19:30;98792.23;;;-1.06;85.16
55191;BME280;41070;50.360;18.742;2023-01-27T03:22:03;98793.08;;;-1.07;84.88
55191;BME280;41070;50.360;18.742;2023-01-27T03:24:56;98793.08;;;-1.10;84.81
55191;BME280;41070;50.360;18.742;2023-01-27T03:27:22;98796.27;;;-1.16;84.80
55191;BME280;41070;50.360;18.742;2023-01-27T03:29:55;98797.14;;;-1.22;84.61
55191;BME280;41070;50.360;18.742;2023-01-27T03:32:48;98803.34;;;-1.25;84.61
55191;BME280;41070;50.360;18.742;2023-01-27T03:35:16;98803.44;;;-1.26;84.87
55191;BME280;41070;50.360;18.742;2023-01-27T03:37:43;98801.18;;;-1.26;84.73
55191;BME280;41070;50.360;18.742;2023-01-27T03:40:29;98798.19;;;-1.25;84.66
55191;BME280;41070;50.360;18.742;2023-01-27T03:43:15;98801.19;;;-1.25;84.69
55191;BME280;41070;50.360;18.742;2023-01-27T03:45:59;98797.72;;;-1.26;84.84
55191;BME280;41070;50.360;18.742;2023-01-27T03:49:04;98798.92;;;-1.22;84.71
55191;BME280;41070;50.360;18.742;2023-01-27T03:51:34;98794.10;;;-1.21;84.69
55191;BME280;41070;50.360;18.742;2023-01-27T03:54:00;98798.05;;;-1.20;84.43
55191;BME280;41070;50.360;18.742;2023-01-27T03:56:26;98796.67;;;-1.26;84.28
55191;BME280;41070;50.360;18.742;2023-01-27T03:58:53;98797.17;;;-1.29;84.13
55191;BME280;41070;50.360;18.742;2023-01-27T04:01:22;98795.80;;;-1.34;84.10
55191;BME280;41070;50.360;18.742;2023-01-27T04:03:50;98795.91;;;-1.37;84.35
55191;BME280;41070;50.360;18.742;2023-01-27T04:06:38;98791.23;;;-1.39;84.34
55191;BME280;41070;50.360;18.742;2023-01-27T04:09:29;98789.60;;;-1.36;84.29
55191;BME280;41070;50.360;18.742;2023-01-27T04:12:05;98790.50;;;-1.34;84.22
55191;BME280;41070;50.360;18.742;2023-01-27T04:14:35;98787.66;;;-1.33;84.22
55191;BME280;41070;50.360;18.742;2023-01-27T04:17:22;98786.09;;;-1.31;83.91
55191;BME280;41070;50.360;18.742;2023-01-27T04:20:11;98789.31;;;-1.27;84.02
55191;BME280;41070;50.360;18.742;2023-01-27T04:22:48;98793.98;;;-1.30;83.71
55191;BME280;41070;50.360;18.742;2023-01-27T04:25:36;98793.44;;;-1.37;83.44
55191;BME280;41070;50.360;18.742;2023-01-27T04:28:27;98793.06;;;-1.41;83.63
55191;BME280;41070;50.360;18.742;2023-01-27T04:30:57;98795.19;;;-1.44;83.60
55191;BME280;41070;50.360;18.742;2023-01-27T04:33:47;98794.67;;;-1.48;83.81
55191;BME280;41070;50.360;18.742;2023-01-27T04:36:39;98801.95;;;-1.49;83.64
55191;BME280;41070;50.360;18.742;2023-01-27T04:39:10;98798.80;;;-1.50;83.74
55191;BME280;41070;50.360;18.742;2023-01-27T04:41:44;98801.22;;;-1.50;83.75
55191;BME280;41070;50.360;18.742;2023-01-27T04:44:17;98805.77;;;-1.52;83.67
55191;BME280;41070;50.360;18.742;2023-01-27T04:46:45;98806.98;;;-1.54;83.78
55191;BME280;41070;50.360;18.742;2023-01-27T04:49:31;98810.38;;;-1.57;83.58
55191;BME280;41070;50.360;18.742;2023-01-27T04:52:17;98805.54;;;-1.60;83.67
55191;BME280;41070;50.360;18.742;2023-01-27T04:54:44;98807.11;;;-1.61;83.76
55191;BME280;41070;50.360;18.742;2023-01-27T04:57:10;98811.09;;;-1.61;83.91
55191;BME280;41070;50.360;18.742;2023-01-27T04:59:36;98809.37;;;-1.61;83.92
55191;BME280;41070;50.360;18.742;2023-01-27T05:02:03;98806.16;;;-1.61;84.00
55191;BME280;41070;50.360;18.742;2023-01-27T05:04:30;98802.64;;;-1.63;84.06
55191;BME280;41070;50.360;18.742;2023-01-27T05:06:57;98803.21;;;-1.65;83.92
55191;BME280;41070;50.360;18.742;2023-01-27T05:09:23;98803.57;;;-1.68;83.93
55191;BME280;41070;50.360;18.742;2023-01-27T05:12:09;98797.16;;;-1.70;84.02
55191;BME280;41070;50.360;18.742;2023-01-27T05:14:37;98799.03;;;-1.72;84.01
55191;BME280;41070;50.360;18.742;2023-01-27T05:17:51;98800.49;;;-1.75;84.15
55191;BME280;41070;50.360;18.742;2023-01-27T05:20:17;98799.28;;;-1.76;84.09
55191;BME280;41070;50.360;18.742;2023-01-27T05:22:57;98805.15;;;-1.77;83.90
55191;BME280;41070;50.360;18.742;2023-01-27T05:26:06;98801.11;;;-1.77;83.83
55191;BME280;41070;50.360;18.742;2023-01-27T05:29:10;98801.83;;;-1.81;83.66
55191;BME280;41070;50.360;18.742;2023-01-27T05:31:40;98805.61;;;-1.80;83.53
55191;BME280;41070;50.360;18.742;2023-01-27T05:34:29;98805.55;;;-1.81;83.47
55191;BME280;41070;50.360;18.742;2023-01-27T05:36:55;98804.96;;;-1.81;83.48
55191;BME280;41070;50.360;18.742;2023-01-27T05:40:06;98807.86;;;-1.81;83.49
55191;BME280;41070;50.360;18.742;2023-01-27T05:42:55;98815.79;;;-1.80;83.51
55191;BME280;41070;50.360;18.742;2023-01-27T05:45:22;98816.84;;;-1.79;83.49
55191;BME280;41070;50.360;18.742;2023-01-27T05:47:53;98818.05;;;-1.78;83.29
55191;BME280;41070;50.360;18.742;2023-01-27T05:50:19;98824.71;;;-1.78;83.34
55191;BME280;41070;50.360;18.742;2023-01-27T05:52:45;98826.02;;;-1.80;83.46
55191;BME280;41070;50.360;18.742;2023-01-27T05:55:27;98829.95;;;-1.82;83.64
55191;BME280;41070;50.360;18.742;2023-01-27T05:58:34;98831.15;;;-1.82;83.56
55191;BME280;41070;50.360;18.742;2023-01-27T06:01:40;98830.78;;;-1.82;83.55
55191;BME280;41070;50.360;18.742;2023-01-27T06:04:08;98833.52;;;-1.81;83.48
55191;BME280;41070;50.360;18.742;2023-01-27T06:06:35;98834.41;;;-1.81;83.47
55191;BME280;41070;50.360;18.742;2023-01-27T06:09:28;98839.14;;;-1.81;83.14
55191;BME280;41070;50.360;18.742;2023-01-27T06:11:54;98840.75;;;-1.83;83.06
55191;BME280;41070;50.360;18.742;2023-01-27T06:14:20;98841.84;;;-1.85;82.92
55191;BME280;41070;50.360;18.742;2023-01-27T06:16:58;98842.39;;;-1.89;82.62
55191;BME280;41070;50.360;18.742;2023-01-27T06:19:59;98845.11;;;-1.90;82.66
55191;BME280;41070;50.360;18.742;2023-01-27T06:22:34;98846.36;;;-1.91;82.53
55191;BME280;41070;50.360;18.742;2023-01-27T06:25:00;98849.56;;;-1.93;82.55
55191;BME280;41070;50.360;18.742;2023-01-27T06:27:47;98853.80;;;-1.94;82.43
55191;BME280;41070;50.360;18.742;2023-01-27T06:30:53;98856.73;;;-1.96;82.33
55191;BME280;41070;50.360;18.742;2023-01-27T06:33:21;98858.92;;;-1.97;82.44
55191;BME280;41070;50.360;18.742;2023-01-27T06:36:02;98854.58;;;-1.96;82.45
55191;BME280;41070;50.360;18.742;2023-01-27T06:38:49;98861.80;;;-1.98;82.25
55191;BME280;41070;50.360;18.742;2023-01-27T06:41:38;98866.25;;;-2.00;82.12
55191;BME280;41070;50.360;18.742;2023-01-27T06:44:05;98867.45;;;-2.01;82.13
55191;BME280;41070;50.360;18.742;2023-01-27T06:46:31;98871.13;;;-2.01;82.20
55191;BME280;41070;50.360;18.742;2023-01-27T06:49:14;98875.47;;;-2.02;82.08
55191;BME280;41070;50.360;18.742;2023-01-27T06:51:41;98879.86;;;-2.03;81.89
55191;BME280;41070;50.360;18.742;2023-01-27T06:54:31;98877.14;;;-2.03;81.97
55191;BME280;41070;50.360;18.742;2023-01-27T06:56:59;98878.52;;;-2.02;81.84
55191;BME280;41070;50.360;18.742;2023-01-27T06:59:25;98885.06;;;-2.00;81.80
55191;BME280;41070;50.360;18.742;2023-01-27T07:01:52;98886.50;;;-1.99;81.67
55191;BME280;41070;50.360;18.742;2023-01-27T07:04:19;98885.19;;;-1.99;81.48
55191;BME280;41070;50.360;18.742;2023-01-27T07:06:45;98882.96;;;-2.01;81.47
55191;BME280;41070;50.360;18.742;2023-01-27T07:09:14;98885.03;;;-1.99;81.26
55191;BME280;41070;50.360;18.742;2023-01-27T07:11:41;98879.89;;;-2.00;81.05
55191;BME280;41070;50.360;18.742;2023-01-27T07:14:07;98879.80;;;-1.98;81.40
55191;BME280;41070;50.360;18.742;2023-01-27T07:16:34;98882.48;;;-1.94;81.39
55191;BME280;41070;50.360;18.742;2023-01-27T07:19:01;98880.98;;;-1.91;81.26
55191;BME280;41070;50.360;18.742;2023-01-27T07:21:32;98885.88;;;-1.90;80.99
55191;BME280;41070;50.360;18.742;2023-01-27T07:23:59;98886.63;;;-1.86;81.05
55191;BME280;41070;50.360;18.742;2023-01-27T07:26:25;98883.86;;;-1.85;81.07
55191;BME280;41070;50.360;18.742;2023-01-27T07:28:51;98879.73;;;-1.84;80.95
55191;BME280;41070;50.360;18.742;2023-01-27T07:31:18;98882.62;;;-1.83;80.87
55191;BME280;41070;50.360;18.742;2023-01-27T07:34:05;98885.50;;;-1.84;80.80
55191;BME280;41070;50.360;18.742;2023-01-27T07:36:55;98886.39;;;-1.84;80.85
55191;BME280;41070;50.360;18.742;2023-01-27T07:39:22;98885.93;;;-1.83;80.94
55191;BME280;41070;50.360;18.742;2023-01-27T07:41:51;98883.92;;;-1.85;80.97
55191;BME280;41070;50.360;18.742;2023-01-27T07:44:39;98889.13;;;-1.82;81.12
55191;BME280;41070;50.360;18.742;2023-01-27T07:47:06;98891.30;;;-1.77;81.12
55191;BME280;41070;50.360;18.742;2023-01-27T07:49:35;98893.62;;;-1.77;81.00
55191;BME280;41070;50.360;18.742;2023-01-27T07:52:02;98895.16;;;-1.73;80.99
55191;BME280;41070;50.360;18.742;2023-01-27T07:54:32;98894.48;;;-1.71;80.91
55191;BME280;41070;50.360;18.742;2023-01-27T07:56:59;98897.19;;;-1.69;80.92
55191;BME280;41070;50.360;18.742;2023-01-27T07:59:28;98891.00;;;-1.66;81.04
55191;BME280;41070;50.360;18.742;2023-01-27T08:02:12;98890.86;;;-1.64;80.80
55191;BME280;41070;50.360;18.742;2023-01-27T08:04:50;98891.38;;;-1.64;80.81
55191;BME280;41070;50.360;18.742;2023-01-27T08:08:16;98887.17;;;-1.66;80.46
55191;BME280;41070;50.360;18.742;2023-01-27T08:10:45;98883.42;;;-1.69;80.42
55191;BME280;41070;50.360;18.742;2023-01-27T08:13:39;98881.18;;;-1.68;80.62
55191;BME280;41070;50.360;18.742;2023-01-27T08:16:26;98879.88;;;-1.68;80.75
55191;BME280;41070;50.360;18.742;2023-01-27T08:19:13;98878.41;;;-1.65;80.84
55191;BME280;41070;50.360;18.742;2023-01-27T08:22:01;98882.56;;;-1.65;80.64
55191;BME280;41070;50.360;18.742;2023-01-27T08:24:49;98882.61;;;-1.65;80.75
55191;BME280;41070;50.360;18.742;2023-01-27T08:27:38;98885.14;;;-1.65;80.55
55191;BME280;41070;50.360;18.742;2023-01-27T08:30:26;98884.77;;;-1.66;80.81
55191;BME280;41070;50.360;18.742;2023-01-27T08:33:13;98888.19;;;-1.62;80.78
55191;BME280;41070;50.360;18.742;2023-01-27T08:35:39;98887.34;;;-1.61;80.71
55191;BME280;41070;50.360;18.742;2023-01-27T08:38:28;98892.42;;;-1.56;80.89
55191;BME280;41070;50.360;18.742;2023-01-27T08:41:21;98889.23;;;-1.55;80.37
55191;BME280;41070;50.360;18.742;2023-01-27T08:44:28;98893.05;;;-1.56;80.14
55191;BME280;41070;50.360;18.742;2023-01-27T08:47:35;98893.84;;;-1.55;79.87
55191;BME280;41070;50.360;18.742;2023-01-27T08:50:04;98897.68;;;-1.54;79.70
55191;BME280;41070;50.360;18.742;2023-01-27T08:53:04;98898.09;;;-1.55;79.61
55191;BME280;41070;50.360;18.742;2023-01-27T08:56:03;98900.88;;;-1.55;79.41
55191;BME280;41070;50.360;18.742;2023-01-27T08:58:57;98903.70;;;-1.55;79.33
55191;BME280;41070;50.360;18.742;2023-01-27T09:01:47;98908.54;;;-1.55;79.32
55191;BME280;41070;50.360;18.742;2023-01-27T09:04:22;98909.70;;;-1.55;79.37
55191;BME280;41070;50.360;18.742;2023-01-27T09:06:51;98910.64;;;-1.55;79.18
55191;BME280;41070;50.360;18.742;2023-01-27T09:09:18;98909.14;;;-1.52;79.44
55191;BME280;41070;50.360;18.742;2023-01-27T09:11:48;98913.56;;;-1.48;79.56
55191;BME280;41070;50.360;18.742;2023-01-27T09:14:19;98917.26;;;-1.43;79.92
55191;BME280;41070;50.360;18.742;2023-01-27T09:16:48;98918.30;;;-1.37;79.55
55191;BME280;41070;50.360;18.742;2023-01-27T09:19:45;98921.41;;;-1.34;79.50
55191;BME280;41070;50.360;18.742;2023-01-27T09:22:15;98925.39;;;-1.35;78.94
55191;BME280;41070;50.360;18.742;2023-01-27T09:25:18;98921.20;;;-1.36;79.16
55191;BME280;41070;50.360;18.742;2023-01-27T09:28:16;98926.03;;;-1.31;79.39
55191;BME280;41070;50.360;18.742;2023-01-27T09:31:42;98929.42;;;-1.25;79.17
55191;BME280;41070;50.360;18.742;2023-01-27T09:34:51;98934.80;;;-1.21;79.10
55191;BME280;41070;50.360;18.742;2023-01-27T09:41:53;98937.63;;;-1.23;78.77
55191;BME280;41070;50.360;18.742;2023-01-27T10:02:16;98939.95;;;-1.20;78.77
55191;BME280;41070;50.360;18.742;2023-01-27T10:04:54;98939.44;;;-1.18;78.37
55191;BME280;41070;50.360;18.742;2023-01-27T10:13:34;98936.34;;;-1.16;78.42
55191;BME280;41070;50.360;18.742;2023-01-27T10:16:35;98935.68;;;-1.22;78.43
55191;BME280;41070;50.360;18.742;2023-01-27T10:25:49;98929.70;;;-1.32;79.64
55191;BME280;41070;50.360;18.742;2023-01-27T10:28:52;98930.73;;;-1.29;79.57
55191;BME280;41070;50.360;18.742;2023-01-27T10:31:26;98933.30;;;-1.26;79.75
55191;BME280;41070;50.360;18.742;2023-01-27T10:34:34;98937.06;;;-1.22;79.91
55191;BME280;41070;50.360;18.742;2023-01-27T10:40:21;98933.84;;;-1.23;79.80
55191;BME280;41070;50.360;18.742;2023-01-27T10:43:12;98938.67;;;-1.24;79.75
55191;BME280;41070;50.360;18.742;2023-01-27T10:49:30;98934.77;;;-1.15;80.00
55191;BME280;41070;50.360;18.742;2023-01-27T10:52:19;98934.98;;;-1.05;79.98
55191;BME280;41070;50.360;18.742;2023-01-27T10:55:37;98933.30;;;-1.04;80.03
55191;BME280;41070;50.360;18.742;2023-01-27T11:01:51;98937.52;;;-0.96;79.70
55191;BME280;41070;50.360;18.742;2023-01-27T11:04:33;98934.55;;;-0.88;79.69
55191;BME280;41070;50.360;18.742;2023-01-27T11:07:13;98931.95;;;-0.84;78.54
55191;BME280;41070;50.360;18.742;2023-01-27T11:10:20;98929.11;;;-0.84;78.81
55191;BME280;41070;50.360;18.742;2023-01-27T11:13:51;98923.65;;;-0.80;78.33
55191;BME280;41070;50.360;18.742;2023-01-27T11:22:25;98921.77;;;-0.80;77.94
55191;BME280;41070;50.360;18.742;2023-01-27T11:25:46;98924.91;;;-0.80;78.03
55191;BME280;41070;50.360;18.742;2023-01-27T11:34:06;98926.05;;;-0.85;77.93
55191;BME280;41070;50.360;18.742;2023-01-27T11:36:53;98922.59;;;-0.86;77.89
55191;BME280;41070;50.360;18.742;2023-01-27T11:39:39;98926.20;;;-0.88;77.32
55191;BME280;41070;50.360;18.742;2023-01-27T11:42:11;98926.81;;;-0.93;77.07
55191;BME280;41070;50.360;18.742;2023-01-27T11:45:19;98927.86;;;-0.94;77.29
55191;BME280;41070;50.360;18.742;2023-01-27T11:49:11;98926.91;;;-0.96;76.94
55191;BME280;41070;50.360;18.742;2023-01-27T11:52:01;98935.31;;;-0.99;76.70
55191;BME280;41070;50.360;18.742;2023-01-27T11:55:34;98938.29;;;-0.99;76.67
55191;BME280;41070;50.360;18.742;2023-01-27T11:58:39;98936.63;;;-0.99;76.10
55191;BME280;41070;50.360;18.742;2023-01-27T12:01:46;98939.27;;;-0.94;76.71
55191;BME280;41070;50.360;18.742;2023-01-27T12:05:08;98939.14;;;-0.88;76.56
55191;BME280;41070;50.360;18.742;2023-01-27T12:11:29;98939.36;;;-0.81;76.34
55191;BME280;41070;50.360;18.742;2023-01-27T12:14:11;98931.22;;;-0.81;76.01
55191;BME280;41070;50.360;18.742;2023-01-27T12:17:02;98929.12;;;-0.82;75.88
55191;BME280;41070;50.360;18.742;2023-01-27T12:26:00;98926.65;;;-0.77;75.29
55191;BME280;41070;50.360;18.742;2023-01-27T12:29:02;98925.75;;;-0.76;74.29
55191;BME280;41070;50.360;18.742;2023-01-27T12:31:51;98917.83;;;-0.76;74.05
55191;BME280;41070;50.360;18.742;2023-01-27T12:34:39;98919.35;;;-0.74;73.60
55191;BME280;41070;50.360;18.742;2023-01-27T12:37:53;98917.00;;;-0.72;73.67
55191;BME280;41070;50.360;18.742;2023-01-27T12:40:39;98915.73;;;-0.70;73.40
55191;BME280;41070;50.360;18.742;2023-01-27T12:43:15;98919.48;;;-0.65;73.63
55191;BME280;41070;50.360;18.742;2023-01-27T12:46:17;98915.59;;;-0.63;73.25
55191;BME280;41070;50.360;18.742;2023-01-27T12:49:09;98910.70;;;-0.62;73.75
55191;BME280;41070;50.360;18.742;2023-01-27T12:51:55;98915.92;;;-0.55;73.88
55191;BME280;41070;50.360;18.742;2023-01-27T12:55:35;98914.02;;;-0.54;73.23
55191;BME280;41070;50.360;18.742;2023-01-27T12:59:12;98915.39;;;-0.53;73.12
55191;BME280;41070;50.360;18.742;2023-01-27T13:01:28;98914.15;;;-0.50;73.25
55191;BME280;41070;50.360;18.742;2023-01-27T13:04:22;98919.02;;;-0.52;72.25
55191;BME280;41070;50.360;18.742;2023-01-27T13:07:14;98915.60;;;-0.54;72.39
55191;BME280;41070;50.360;18.742;2023-01-27T13:10:59;98923.19;;;-0.51;72.25
55191;BME280;41070;50.360;18.742;2023-01-27T13:13:48;98928.65;;;-0.54;71.57
55191;BME280;41070;50.360;18.742;2023-01-27T13:17:00;98929.27;;;-0.59;71.53
55191;BME280;41070;50.360;18.742;2023-01-27T13:19:33;98931.99;;;-0.60;71.64
55191;BME280;41070;50.360;18.742;2023-01-27T13:22:52;98930.42;;;-0.63;71.58
55191;BME280;41070;50.360;18.742;2023-01-27T13:26:20;98929.09;;;-0.66;71.50
55191;BME280;41070;50.360;18.742;2023-01-27T13:29:13;98931.77;;;-0.65;71.76
55191;BME280;41070;50.360;18.742;2023-01-27T13:32:28;98930.53;;;-0.61;71.95
55191;BME280;41070;50.360;18.742;2023-01-27T13:35:59;98932.20;;;-0.56;71.95
55191;BME280;41070;50.360;18.742;2023-01-27T13:41:54;98934.48;;;-0.55;71.65
55191;BME280;41070;50.360;18.742;2023-01-27T13:47:51;98934.85;;;-0.51;71.35
55191;BME280;41070;50.360;18.742;2023-01-27T13:50:37;98942.27;;;-0.53;70.80
55191;BME280;41070;50.360;18.742;2023-01-27T13:53:17;98939.42;;;-0.56;70.67
55191;BME280;41070;50.360;18.742;2023-01-27T13:56:03;98940.36;;;-0.58;70.32
55191;BME280;41070;50.360;18.742;2023-01-27T14:17:28;98941.19;;;-0.61;70.23
55191;BME280;41070;50.360;18.742;2023-01-27T14:23:40;98946.92;;;-0.66;68.96
55191;BME280;41070;50.360;18.742;2023-01-27T14:36:44;98952.79;;;-0.72;69.05
55191;BME280;41070;50.360;18.742;2023-01-27T14:43:10;98963.40;;;-0.74;69.05
55191;BME280;41070;50.360;18.742;2023-01-27T15:01:45;98983.04;;;-0.76;68.57
55191;BME280;41070;50.360;18.742;2023-01-27T15:04:41;98982.58;;;-0.76;68.81
55191;BME280;41070;50.360;18.742;2023-01-27T15:08:18;98984.64;;;-0.75;68.75
55191;BME280;41070;50.360;18.742;2023-01-27T15:20:18;98991.72;;;-0.77;67.96
55191;BME280;41070;50.360;18.742;2023-01-27T15:26:25;99002.38;;;-0.78;67.88
55191;BME280;41070;50.360;18.742;2023-01-27T15:29:28;99006.42;;;-0.79;67.71
55191;BME280;41070;50.360;18.742;2023-01-27T15:35:34;99012.00;;;-0.79;67.69
55191;BME280;41070;50.360;18.742;2023-01-27T15:38:32;99010.16;;;-0.79;67.20
55191;BME280;41070;50.360;18.742;2023-01-27T15:41:23;99014.66;;;-0.81;66.75
55191;BME280;41070;50.360;18.742;2023-01-27T15:48:03;99020.65;;;-0.84;66.39
55191;BME280;41070;50.360;18.742;2023-01-27T15:50:36;99018.52;;;-0.87;66.97
55191;BME280;41070;50.360;18.742;2023-01-27T15:53:30;99019.79;;;-0.90;66.43
55191;BME280;41070;50.360;18.742;2023-01-27T15:56:39;99020.02;;;-0.94;66.37
55191;BME280;41070;50.360;18.742;2023-01-27T15:59:29;99023.96;;;-0.96;65.97
55191;BME280;41070;50.360;18.742;2023-01-27T16:04:43;99025.23;;;-0.97;66.50
55191;BME280;41070;50.360;18.742;2023-01-27T16:07:35;99032.20;;;-0.98;66.44
55191;BME280;41070;50.360;18.742;2023-01-27T16:10:18;99027.77;;;-0.99;66.09
55191;BME280;41070;50.360;18.742;2023-01-27T16:16:28;99032.84;;;-0.96;65.82
55191;BME280;41070;50.360;18.742;2023-01-27T16:21:59;99027.95;;;-0.94;66.21
55191;BME280;41070;50.360;18.742;2023-01-27T16:24:50;99028.97;;;-0.94;66.16
55191;BME280;41070;50.360;18.742;2023-01-27T16:27:40;99027.38;;;-0.94;66.21
55191;BME280;41070;50.360;18.742;2023-01-27T16:30:42;99026.13;;;-0.94;66.52
55191;BME280;41070;50.360;18.742;2023-01-27T16:33:28;99019.34;;;-0.95;66.85
55191;BME280;41070;50.360;18.742;2023-01-27T16:40:27;99018.84;;;-0.92;67.18
55191;BME280;41070;50.360;18.742;2023-01-27T16:43:25;99020.96;;;-0.95;66.70
55191;BME280;41070;50.360;18.742;2023-01-27T16:46:35;99022.75;;;-0.96;67.28
55191;BME280;41070;50.360;18.742;2023-01-27T16:49:40;99026.63;;;-0.98;67.38
55191;BME280;41070;50.360;18.742;2023-01-27T16:52:35;99026.40;;;-0.99;67.50
55191;BME280;41070;50.360;18.742;2023-01-27T16:55:20;99031.08;;;-1.01;67.64
55191;BME280;41070;50.360;18.742;2023-01-27T16:58:19;99027.71;;;-1.02;67.92
55191;BME280;41070;50.360;18.742;2023-01-27T17:01:04;99027.66;;;-1.03;67.88
55191;BME280;41070;50.360;18.742;2023-01-27T17:04:31;99022.64;;;-1.05;68.23
55191;BME280;41070;50.360;18.742;2023-01-27T17:07:05;99023.01;;;-1.05;68.70
55191;BME280;41070;50.360;18.742;2023-01-27T17:09:48;99022.85;;;-1.06;69.34
55191;BME280;41070;50.360;18.742;2023-01-27T17:12:41;99018.44;;;-1.07;69.92
55191;BME280;41070;50.360;18.742;2023-01-27T17:15:48;99019.64;;;-1.07;70.36
55191;BME280;41070;50.360;18.742;2023-01-27T17:18:18;99017.91;;;-1.08;70.71
55191;BME280;41070;50.360;18.742;2023-01-27T17:21:12;99023.48;;;-1.08;70.94
55191;BME280;41070;50.360;18.742;2023-01-27T17:23:40;99021.36;;;-1.11;71.34
55191;BME280;41070;50.360;18.742;2023-01-27T17:26:47;99028.52;;;-1.06;71.19
55191;BME280;41070;50.360;18.742;2023-01-27T17:29:29;99027.69;;;-1.05;71.58
55191;BME280;41070;50.360;18.742;2023-01-27T17:32:12;99030.21;;;-1.06;72.09
55191;BME280;41070;50.360;18.742;2023-01-27T17:34:58;99032.63;;;-1.07;71.93